Time;durP1;ratioP1;P1;durP2;ratioP2;P2;SDS_P1;SDS_P2;PMS_P1;PMS_P2;Temp;Humidity;BMP_temperature;BMP_pressure;BME280_temperature;BME280_humidity;BME280_pressure;Samples;Min_cycle;Max_cycle;Signal;HPM_P1;HPM_P2
2023/06/10 00:01:55;;;;;;;8.48;5.50;;;;;;;;;;5022157;28;20053;-73
2023/06/10 00:04:20;;;;;;;6.45;4.75;;;;;;;;;;5021388;28;20056;-73
2023/06/10 00:06:48;;;;;;;5.60;5.03;;;;;;;;;;5021988;28;20041;-73
2023/06/10 00:09:14;;;;;;;6.55;5.30;;;;;;;;;;5021089;28;20045;-71
2023/06/10 00:11:40;;;;;;;5.90;5.07;;;;;;;;;;5022021;28;20133;-72
2023/06/10 00:14:06;;;;;;;8.63;5.45;;;;;;;;;;5022050;28;20079;-75
2023/06/10 00:16:33;;;;;;;7.88;5.15;;;;;;;;;;5021153;28;20045;-73
2023/06/10 00:19:02;;;;;;;6.53;5.20;;;;;;;;;;5020158;28;20437;-73
2023/06/10 00:21:28;;;;;;;5.28;4.78;;;;;;;;;;5022079;28;20056;-72
2023/06/10 00:23:55;;;;;;;8.07;5.28;;;;;;;;;;5021209;28;20073;-75
2023/06/10 00:26:22;;;;;;;7.07;5.25;;;;;;;;;;5022615;28;20071;-72
2023/06/10 00:28:47;;;;;;;7.65;5.35;;;;;;;;;;5019928;28;20144;-72
2023/06/10 00:31:13;;;;;;;8.70;5.22;;;;;;;;;;5022695;28;20556;-73
2023/06/10 00:33:38;;;;;;;7.72;6.30;;;;;;;;;;5020880;28;20053;-72
2023/06/10 00:36:04;;;;;;;8.65;5.45;;;;;;;;;;5021104;28;20037;-73
2023/06/10 00:38:29;;;;;;;6.80;5.38;;;;;;;;;;5037081;28;20080;-73
2023/06/10 00:40:55;;;;;;;7.05;5.93;;;;;;;;;;5021271;28;20047;-73
2023/06/10 00:43:20;;;;;;;6.43;5.80;;;;;;;;;;5036615;28;20056;-72
2023/06/10 00:45:46;;;;;;;6.82;6.03;;;;;;;;;;5004153;28;20060;-72
2023/06/10 00:48:11;;;;;;;11.45;6.28;;;;;;;;;;5021827;28;20640;-73
2023/06/10 00:50:39;;;;;;;7.35;5.80;;;;;;;;;;5020036;28;20526;-73
2023/06/10 00:53:05;;;;;;;8.10;5.63;;;;;;;;;;5021013;28;20042;-73
2023/06/10 00:55:32;;;;;;;9.75;5.88;;;;;;;;;;5020610;28;20168;-72
2023/06/10 00:57:58;;;;;;;6.88;5.60;;;;;;;;;;5021244;28;20049;-73
2023/06/10 01:00:25;;;;;;;9.50;5.97;;;;;;;;;;5003628;28;20092;-72
2023/06/10 01:02:52;;;;;;;9.00;5.75;;;;;;;;;;5020398;28;20110;-73
2023/06/10 01:05:19;;;;;;;9.05;5.85;;;;;;;;;;5020448;28;20045;-73
2023/06/10 01:08:00;;;;;;;6.40;5.45;;;;;;;;;;5021465;28;20099;-73
2023/06/10 01:10:37;;;;;;;7.03;5.82;;;;;;;;;;5021489;28;20045;-73
2023/06/10 01:13:06;;;;;;;7.43;5.80;;;;;;;;;;5019738;28;20052;-73
2023/06/10 01:15:33;;;;;;;9.25;6.05;;;;;;;;;;5019962;28;20059;-72
2023/06/10 01:18:09;;;;;;;7.53;6.15;;;;;;;;;;5017971;28;20049;-73
2023/06/10 01:20:40;;;;;;;7.03;5.70;;;;;;;;;;5019541;28;20049;-74
2023/06/10 01:23:06;;;;;;;7.50;6.32;;;;;;;;;;5017382;28;20042;-74
2023/06/10 01:25:36;;;;;;;6.95;6.10;;;;;;;;;;5018954;28;20049;-72
2023/06/10 01:28:10;;;;;;;6.97;6.20;;;;;;;;;;5020585;28;20786;-73
2023/06/10 01:31:04;;;;;;;9.23;6.38;;;;;;;;;;5019317;28;20037;-72
2023/06/10 01:33:36;;;;;;;10.90;6.70;;;;;;;;;;4989521;28;20083;-73
2023/06/10 01:36:02;;;;;;;;;;;;;;;;;;5020794;28;20107;-72
2023/06/10 01:38:32;;;;;;;10.65;6.03;;;;;;;;;;5016032;28;20417;-74
2023/06/10 01:40:57;;;;;;;6.97;6.22;;;;;;;;;;5019562;28;20045;-73
2023/06/10 01:43:23;;;;;;;7.55;6.57;;;;;;;;;;5019039;28;20053;-73
2023/06/10 01:45:49;;;;;;;8.35;6.10;;;;;;;;;;5020835;28;20529;-72
2023/06/10 01:48:14;;;;;;;9.38;6.53;;;;;;;;;;5034717;28;21165;-72
2023/06/10 01:50:41;;;;;;;8.38;6.70;;;;;;;;;;5020504;28;20060;-72
2023/06/10 01:53:07;;;;;;;8.65;6.70;;;;;;;;;;5018304;28;20060;-72
2023/06/10 01:55:32;;;;;;;8.73;6.70;;;;;;;;;;5035960;28;20079;-72
2023/06/10 01:57:57;;;;;;;8.00;6.78;;;;;;;;;;5034456;28;20045;-72
2023/06/10 02:00:23;;;;;;;7.95;6.78;;;;;;;;;;5019180;28;20049;-72
2023/06/10 02:02:48;;;;;;;8.25;6.70;;;;;;;;;;5001568;28;20053;-72
2023/06/10 02:05:14;;;;;;;9.68;6.93;;;;;;;;;;5020703;28;20061;-72
2023/06/10 02:07:41;;;;;;;8.30;7.13;;;;;;;;;;5014814;28;20568;-73
2023/06/10 02:10:07;;;;;;;11.38;7.22;;;;;;;;;;5034679;28;20096;-72
2023/06/10 02:12:33;;;;;;;12.82;7.15;;;;;;;;;;5018080;28;20124;-72
2023/06/10 02:14:58;;;;;;;13.38;7.30;;;;;;;;;;5017552;28;20172;-73
2023/06/10 02:17:24;;;;;;;8.77;7.35;;;;;;;;;;5018969;28;20072;-72
2023/06/10 02:19:52;;;;;;;8.55;7.65;;;;;;;;;;5018458;28;20092;-72
2023/06/10 02:22:21;;;;;;;11.77;7.05;;;;;;;;;;5019185;28;20041;-71
2023/06/10 02:24:47;;;;;;;8.65;7.35;;;;;;;;;;5019406;28;20049;-74
2023/06/10 02:27:12;;;;;;;9.55;7.47;;;;;;;;;;5020398;28;20052;-73
2023/06/10 02:29:38;;;;;;;8.45;7.55;;;;;;;;;;5015653;28;20072;-72
2023/06/10 02:32:05;;;;;;;11.40;7.97;;;;;;;;;;5023384;28;20950;-72
2023/06/10 02:34:30;;;;;;;9.55;7.38;;;;;;;;;;5019191;28;20049;-72
2023/06/10 02:36:57;;;;;;;10.95;7.90;;;;;;;;;;5024321;28;20072;-73
2023/06/10 02:39:23;;;;;;;10.18;7.70;;;;;;;;;;5028895;28;20125;-73
2023/06/10 02:41:49;;;;;;;11.15;7.57;;;;;;;;;;5027380;28;20041;-72
2023/06/10 02:44:17;;;;;;;9.52;7.68;;;;;;;;;;5019295;28;20053;-72
2023/06/10 02:46:43;;;;;;;11.20;8.57;;;;;;;;;;5026518;28;20556;-72
2023/06/10 02:49:09;;;;;;;10.85;8.18;;;;;;;;;;4997648;28;20049;-73
2023/06/10 02:51:35;;;;;;;10.30;8.52;;;;;;;;;;5030830;28;20061;-73
2023/06/10 02:54:03;;;;;;;9.68;8.68;;;;;;;;;;5017867;28;20037;-73
2023/06/10 02:56:29;;;;;;;8.55;7.65;;;;;;;;;;5018319;28;20064;-72
2023/06/10 02:58:57;;;;;;;9.13;7.70;;;;;;;;;;5033827;28;20053;-73
2023/06/10 03:01:24;;;;;;;9.95;8.65;;;;;;;;;;5029248;28;20041;-73
2023/06/10 03:04:01;;;;;;;9.50;8.50;;;;;;;;;;5027157;28;20053;-73
2023/06/10 03:06:27;;;;;;;11.65;8.93;;;;;;;;;;5018666;28;20438;-72
2023/06/10 03:09:04;;;;;;;12.73;9.27;;;;;;;;;;5017523;28;20103;-72
2023/06/10 03:11:30;;;;;;;11.27;8.88;;;;;;;;;;5018509;28;20038;-73
2023/06/10 03:13:56;;;;;;;13.45;10.13;;;;;;;;;;5034471;28;20049;-73
2023/06/10 03:16:25;;;;;;;12.18;9.27;;;;;;;;;;5017614;28;20144;-73
2023/06/10 03:18:50;;;;;;;12.93;10.45;;;;;;;;;;5017113;28;20048;-73
2023/06/10 03:21:16;;;;;;;13.02;10.02;;;;;;;;;;5018459;28;20037;-73
2023/06/10 03:23:41;;;;;;;12.38;10.15;;;;;;;;;;5018378;28;20495;-73
2023/06/10 03:26:07;;;;;;;11.65;10.02;;;;;;;;;;5017678;28;20041;-73
2023/06/10 03:28:36;;;;;;;13.88;9.90;;;;;;;;;;5022231;28;20041;-73
2023/06/10 03:31:01;;;;;;;15.95;10.27;;;;;;;;;;5023502;28;20123;-72
2023/06/10 03:33:31;;;;;;;12.30;10.00;;;;;;;;;;5022958;28;20064;-73
2023/06/10 03:35:56;;;;;;;12.70;9.02;;;;;;;;;;5023662;28;20683;-72
2023/06/10 03:38:23;;;;;;;10.15;8.73;;;;;;;;;;5024151;28;20123;-73
2023/06/10 03:40:49;;;;;;;16.05;10.35;;;;;;;;;;5032561;28;20072;-73
2023/06/10 03:43:14;;;;;;;13.65;9.05;;;;;;;;;;5022569;28;20052;-72
2023/06/10 03:45:41;;;;;;;15.02;9.02;;;;;;;;;;5038873;28;20061;-73
2023/06/10 03:48:07;;;;;;;12.43;9.48;;;;;;;;;;5037713;28;20098;-73
2023/06/10 03:50:43;;;;;;;13.88;9.02;;;;;;;;;;5022158;28;20080;-72
2023/06/10 03:53:08;;;;;;;12.40;9.82;;;;;;;;;;5013008;28;20068;-73
2023/06/10 03:55:36;;;;;;;12.60;9.60;;;;;;;;;;4995844;28;20502;-73
2023/06/10 03:58:02;;;;;;;13.27;9.70;;;;;;;;;;5021683;28;20041;-72
2023/06/10 04:00:28;;;;;;;12.55;9.70;;;;;;;;;;5027041;28;20060;-72
2023/06/10 04:02:57;;;;;;;14.15;9.88;;;;;;;;;;5021289;28;20049;-73
2023/06/10 04:05:31;;;;;;;13.55;10.18;;;;;;;;;;5023129;28;20068;-72
2023/06/10 04:07:57;;;;;;;12.48;9.77;;;;;;;;;;5021205;28;20486;-73
2023/06/10 04:10:23;;;;;;;13.38;9.88;;;;;;;;;;5021426;28;20092;-73
2023/06/10 04:12:48;;;;;;;13.70;10.77;;;;;;;;;;5037879;28;20038;-73
2023/06/10 04:15:14;;;;;;;13.73;10.15;;;;;;;;;;5021573;28;20425;-72
2023/06/10 04:17:41;;;;;;;15.60;10.38;;;;;;;;;;5020885;28;20065;-73
2023/06/10 04:20:07;;;;;;;13.35;10.70;;;;;;;;;;5020971;28;20076;-73
2023/06/10 04:22:34;;;;;;;13.98;11.07;;;;;;;;;;5012931;28;20038;-72
2023/06/10 04:25:00;;;;;;;12.88;9.63;;;;;;;;;;5020960;28;20049;-72
2023/06/10 04:27:27;;;;;;;14.90;10.63;;;;;;;;;;5021312;28;20084;-72
2023/06/10 04:29:53;;;;;;;14.70;11.40;;;;;;;;;;5020705;28;20049;-73
2023/06/10 04:32:19;;;;;;;16.00;10.63;;;;;;;;;;5020865;28;20095;-73
2023/06/10 04:34:45;;;;;;;14.95;10.57;;;;;;;;;;5021623;28;20061;-72
2023/06/10 04:37:10;;;;;;;12.90;9.80;;;;;;;;;;5020448;28;20450;-73
2023/06/10 04:39:36;;;;;;;13.98;10.68;;;;;;;;;;5021915;28;20050;-72
2023/06/10 04:42:02;;;;;;;12.23;10.18;;;;;;;;;;5021067;28;20036;-72
2023/06/10 04:44:29;;;;;;;14.40;10.35;;;;;;;;;;5020796;28;20057;-72
2023/06/10 04:46:55;;;;;;;13.40;10.15;;;;;;;;;;5020187;28;20227;-72
2023/06/10 04:49:21;;;;;;;14.35;10.38;;;;;;;;;;5021534;28;20562;-72
2023/06/10 04:51:46;;;;;;;15.88;10.30;;;;;;;;;;5021341;28;20086;-72
2023/06/10 04:54:12;;;;;;;13.50;9.88;;;;;;;;;;5020657;28;20041;-72
2023/06/10 04:56:37;;;;;;;12.45;9.95;;;;;;;;;;5021352;28;20056;-72
2023/06/10 04:59:02;;;;;;;13.05;10.20;;;;;;;;;;5022002;28;20414;-72
2023/06/10 05:01:28;;;;;;;13.32;8.88;;;;;;;;;;5021138;28;20057;-73
2023/06/10 05:03:53;;;;;;;11.88;8.15;;;;;;;;;;5022362;28;20045;-72
2023/06/10 05:06:19;;;;;;;12.05;7.68;;;;;;;;;;5029585;28;20567;-73
2023/06/10 05:08:44;;;;;;;12.60;7.97;;;;;;;;;;5019964;28;20164;-73
2023/06/10 05:11:10;;;;;;;18.75;8.40;;;;;;;;;;5019994;28;20052;-72
2023/06/10 05:13:36;;;;;;;9.25;7.43;;;;;;;;;;5003531;28;20045;-73
2023/06/10 05:16:02;;;;;;;15.07;8.00;;;;;;;;;;5021048;28;20812;-73
2023/06/10 05:18:27;;;;;;;11.02;7.15;;;;;;;;;;5021434;28;20051;-72
2023/06/10 05:20:53;;;;;;;14.90;7.63;;;;;;;;;;5021063;28;20068;-72
2023/06/10 05:23:19;;;;;;;13.32;7.70;;;;;;;;;;5021462;28;20110;-72
2023/06/10 05:25:45;;;;;;;10.18;7.85;;;;;;;;;;5020900;28;20092;-72
2023/06/10 05:28:11;;;;;;;12.05;7.38;;;;;;;;;;5036964;28;20173;-72
2023/06/10 05:30:37;;;;;;;10.32;7.63;;;;;;;;;;5021478;28;20399;-72
2023/06/10 05:33:03;;;;;;;11.25;7.70;;;;;;;;;;5003468;28;20107;-72
2023/06/10 05:35:29;;;;;;;9.48;7.00;;;;;;;;;;5020851;28;20149;-72
2023/06/10 05:37:54;;;;;;;9.27;6.85;;;;;;;;;;5020280;28;20064;-72
2023/06/10 05:40:20;;;;;;;13.13;7.53;;;;;;;;;;5021012;28;20411;-72
2023/06/10 05:42:45;;;;;;;9.38;7.00;;;;;;;;;;5019429;28;20048;-72
2023/06/10 05:45:11;;;;;;;9.55;6.82;;;;;;;;;;5020143;28;20395;-72
2023/06/10 05:47:36;;;;;;;8.10;6.75;;;;;;;;;;5020326;28;20057;-72
2023/06/10 05:50:02;;;;;;;8.27;6.68;;;;;;;;;;5017956;28;20084;-72
2023/06/10 05:52:28;;;;;;;8.10;6.35;;;;;;;;;;5022583;28;20068;-72
2023/06/10 05:54:54;;;;;;;6.75;5.60;;;;;;;;;;5022139;28;20418;-73
2023/06/10 05:57:20;;;;;;;7.32;5.57;;;;;;;;;;5020705;28;20045;-73
2023/06/10 05:59:45;;;;;;;6.57;5.43;;;;;;;;;;5025260;28;20049;-73
2023/06/10 06:02:11;;;;;;;6.18;5.43;;;;;;;;;;5019079;28;20922;-73
2023/06/10 06:04:36;;;;;;;6.88;5.90;;;;;;;;;;5035834;28;20065;-73
2023/06/10 06:07:01;;;;;;;6.88;5.75;;;;;;;;;;5019465;28;20049;-73
2023/06/10 06:09:27;;;;;;;9.52;5.75;;;;;;;;;;5020939;28;20278;-73
2023/06/10 06:11:52;;;;;;;8.88;7.03;;;;;;;;;;5019494;28;20038;-73
2023/06/10 06:14:18;;;;;;;7.20;6.05;;;;;;;;;;5036390;28;20180;-73
2023/06/10 06:16:43;;;;;;;7.53;6.18;;;;;;;;;;5020813;28;20667;-73
2023/06/10 06:19:11;;;;;;;7.30;5.70;;;;;;;;;;5020167;28;20062;-73
2023/06/10 06:21:36;;;;;;;6.80;6.10;;;;;;;;;;5021779;28;20107;-73
2023/06/10 06:24:02;;;;;;;8.85;5.55;;;;;;;;;;5020666;28;20053;-73
2023/06/10 06:26:27;;;;;;;6.00;4.72;;;;;;;;;;5036683;28;20541;-73
2023/06/10 06:28:52;;;;;;;7.95;4.60;;;;;;;;;;5019804;28;20068;-73
2023/06/10 06:31:18;;;;;;;6.93;5.20;;;;;;;;;;5021731;28;20049;-72
2023/06/10 06:33:43;;;;;;;5.78;5.13;;;;;;;;;;5023720;28;20041;-72
2023/06/10 06:36:09;;;;;;;9.25;5.40;;;;;;;;;;5025920;28;20056;-72
2023/06/10 06:38:34;;;;;;;6.60;5.72;;;;;;;;;;5007449;28;20148;-73
2023/06/10 06:41:02;;;;;;;6.07;5.32;;;;;;;;;;5020274;28;20510;-73
2023/06/10 06:43:29;;;;;;;6.43;5.40;;;;;;;;;;5022717;28;20554;-72
2023/06/10 06:46:02;;;;;;;6.07;5.38;;;;;;;;;;5025864;28;20048;-72
2023/06/10 06:48:27;;;;;;;7.38;5.90;;;;;;;;;;5023751;28;20045;-72
2023/06/10 06:50:53;;;;;;;7.50;5.78;;;;;;;;;;5021241;28;20414;-73
2023/06/10 06:53:18;;;;;;;10.05;5.43;;;;;;;;;;5025103;28;20116;-72
2023/06/10 06:55:44;;;;;;;5.15;4.68;;;;;;;;;;5024347;28;20107;-72
2023/06/10 06:58:10;;;;;;;6.25;5.65;;;;;;;;;;5025900;28;20129;-72
2023/06/10 07:00:35;;;;;;;7.85;6.05;;;;;;;;;;5023709;28;20465;-73
2023/06/10 07:03:00;;;;;;;11.07;5.75;;;;;;;;;;5025793;28;20041;-73
2023/06/10 07:05:27;;;;;;;7.93;5.43;;;;;;;;;;5026028;28;20073;-73
2023/06/10 07:07:54;;;;;;;7.22;5.47;;;;;;;;;;5027495;28;20064;-72
2023/06/10 07:10:26;;;;;;;6.40;5.75;;;;;;;;;;5027025;28;20044;-72
2023/06/10 07:12:52;;;;;;;6.45;5.03;;;;;;;;;;5013057;28;20779;-72
2023/06/10 07:15:18;;;;;;;6.40;5.20;;;;;;;;;;5023126;28;20049;-72
2023/06/10 07:17:44;;;;;;;6.70;4.97;;;;;;;;;;5022341;28;20064;-72
2023/06/10 07:20:10;;;;;;;6.03;5.05;;;;;;;;;;5005111;28;20140;-72
2023/06/10 07:22:36;;;;;;;5.93;4.90;;;;;;;;;;5023056;28;20179;-72
2023/06/10 07:25:01;;;;;;;6.15;5.22;;;;;;;;;;5022215;28;20049;-72
2023/06/10 07:27:27;;;;;;;6.28;4.85;;;;;;;;;;5022152;28;20048;-72
2023/06/10 07:29:52;;;;;;;5.10;4.63;;;;;;;;;;5022641;28;20104;-72
2023/06/10 07:32:20;;;;;;;4.82;4.43;;;;;;;;;;5023116;28;20071;-72
2023/06/10 07:34:45;;;;;;;5.75;4.82;;;;;;;;;;5023109;28;20414;-72
2023/06/10 07:37:11;;;;;;;7.45;4.72;;;;;;;;;;5022078;28;20625;-72
2023/06/10 07:39:36;;;;;;;4.85;4.35;;;;;;;;;;5037178;28;20053;-72
2023/06/10 07:42:02;;;;;;;5.25;4.60;;;;;;;;;;5022144;28;20054;-73
2023/06/10 07:44:28;;;;;;;4.72;3.75;;;;;;;;;;5021560;28;20076;-72
2023/06/10 07:46:53;;;;;;;4.15;3.75;;;;;;;;;;5020647;28;20132;-72
2023/06/10 07:49:19;;;;;;;4.18;3.78;;;;;;;;;;5021739;28;20054;-72
2023/06/10 07:51:44;;;;;;;4.03;3.58;;;;;;;;;;5020908;28;20041;-72
2023/06/10 07:54:12;;;;;;;4.93;3.88;;;;;;;;;;5022815;28;20124;-72
2023/06/10 07:56:37;;;;;;;4.70;3.95;;;;;;;;;;5021326;28;20049;-73
2023/06/10 07:59:03;;;;;;;4.28;3.83;;;;;;;;;;5036574;28;20535;-72
2023/06/10 08:01:30;;;;;;;5.63;3.65;;;;;;;;;;5036795;28;20102;-72
2023/06/10 08:03:55;;;;;;;5.93;4.00;;;;;;;;;;5022379;28;20144;-72
2023/06/10 08:06:20;;;;;;;5.18;3.50;;;;;;;;;;5028741;28;20157;-72
2023/06/10 08:08:46;;;;;;;4.35;3.40;;;;;;;;;;5043288;28;20057;-72
2023/06/10 08:11:13;;;;;;;3.22;2.92;;;;;;;;;;5021345;28;20084;-72
2023/06/10 08:13:39;;;;;;;4.88;4.05;;;;;;;;;;5022085;28;20095;-73
2023/06/10 08:16:05;;;;;;;3.78;3.25;;;;;;;;;;5021040;28;20568;-73
2023/06/10 08:18:31;;;;;;;4.07;3.67;;;;;;;;;;5025088;28;20045;-73
2023/06/10 08:20:56;;;;;;;3.30;3.00;;;;;;;;;;5023000;28;20049;-72
2023/06/10 08:23:22;;;;;;;3.90;3.40;;;;;;;;;;5022819;28;20057;-71
2023/06/10 08:25:47;;;;;;;3.10;2.80;;;;;;;;;;5022050;28;20679;-72
2023/06/10 08:28:12;;;;;;;3.40;3.10;;;;;;;;;;5021843;28;20037;-71
2023/06/10 08:30:38;;;;;;;3.38;3.08;;;;;;;;;;5020908;28;20184;-71
2023/06/10 08:33:03;;;;;;;3.38;2.85;;;;;;;;;;5021241;28;20133;-71
2023/06/10 08:35:29;;;;;;;4.22;3.30;;;;;;;;;;5020581;28;20103;-72
2023/06/10 08:37:55;;;;;;;4.72;3.47;;;;;;;;;;5021625;28;20050;-73
2023/06/10 08:40:21;;;;;;;4.03;3.63;;;;;;;;;;5019981;28;20033;-74
2023/06/10 08:43:07;;;;;;;5.07;3.08;;;;;;;;;;5021778;28;20118;-73
2023/06/10 08:45:35;;;;;;;3.85;3.47;;;;;;;;;;5033139;28;20061;-72
2023/06/10 08:48:09;;;;;;;6.03;4.13;;;;;;;;;;5019949;28;20118;-72
2023/06/10 08:50:37;;;;;;;3.75;3.25;;;;;;;;;;5019368;28;20045;-73
2023/06/10 08:53:05;;;;;;;5.13;2.83;;;;;;;;;;5020271;28;20042;-71
2023/06/10 08:55:41;;;;;;;2.40;2.17;;;;;;;;;;5019648;28;20087;-73
2023/06/10 08:58:06;;;;;;;3.22;2.55;;;;;;;;;;5018708;28;20045;-72
2023/06/10 09:00:33;;;;;;;2.80;2.60;;;;;;;;;;5035967;28;20048;-71
2023/06/10 09:03:00;;;;;;;3.63;2.83;;;;;;;;;;5018419;28;20050;-72
2023/06/10 09:05:27;;;;;;;2.60;2.40;;;;;;;;;;5021162;28;20495;-72
2023/06/10 09:07:53;;;;;;;2.88;2.67;;;;;;;;;;5016225;28;20045;-72
2023/06/10 09:10:19;;;;;;;4.55;2.45;;;;;;;;;;5020452;28;20087;-71
2023/06/10 09:12:44;;;;;;;2.78;2.53;;;;;;;;;;5020963;28;20033;-72
2023/06/10 09:15:12;;;;;;;4.13;2.60;;;;;;;;;;5019882;28;21116;-72
2023/06/10 09:17:40;;;;;;;2.72;2.15;;;;;;;;;;5017620;28;20041;-72
2023/06/10 09:20:07;;;;;;;3.45;2.53;;;;;;;;;;5001713;28;20045;-72
2023/06/10 09:22:33;;;;;;;2.80;2.60;;;;;;;;;;5018478;28;20045;-72
2023/06/10 09:25:07;;;;;;;3.58;2.20;;;;;;;;;;5016263;28;20391;-72
2023/06/10 09:27:32;;;;;;;2.70;2.50;;;;;;;;;;5019206;28;20059;-72
2023/06/10 09:29:58;;;;;;;3.08;2.78;;;;;;;;;;5019304;28;20045;-70
2023/06/10 09:32:24;;;;;;;2.78;2.58;;;;;;;;;;5017953;28;20398;-72
2023/06/10 09:34:53;;;;;;;4.07;2.58;;;;;;;;;;5034683;28;20045;-73
2023/06/10 09:37:23;;;;;;;2.47;2.20;;;;;;;;;;5020552;28;20050;-71
2023/06/10 09:40:03;;;;;;;5.22;2.70;;;;;;;;;;5019215;28;20051;-71
2023/06/10 09:42:32;;;;;;;2.40;2.20;;;;;;;;;;5014396;28;20050;-72
2023/06/10 09:44:57;;;;;;;2.60;1.80;;;;;;;;;;5032175;28;20056;-72
2023/06/10 09:47:24;;;;;;;1.77;1.67;;;;;;;;;;5017288;28;20057;-74
2023/06/10 09:49:50;;;;;;;2.30;2.10;;;;;;;;;;5033495;28;20061;-72
2023/06/10 09:52:26;;;;;;;2.63;2.42;;;;;;;;;;5015425;28;20037;-73
2023/06/10 09:54:52;;;;;;;3.40;1.90;;;;;;;;;;5016861;28;20056;-73
2023/06/10 09:57:19;;;;;;;2.00;1.80;;;;;;;;;;5033556;28;20053;-73
2023/06/10 09:59:45;;;;;;;1.88;1.77;;;;;;;;;;5016067;28;20045;-72
2023/06/10 10:02:15;;;;;;;2.55;2.33;;;;;;;;;;5018978;28;20080;-71
2023/06/10 10:04:41;;;;;;;2.58;2.38;;;;;;;;;;5024317;28;20053;-71
2023/06/10 10:07:08;;;;;;;2.72;2.53;;;;;;;;;;5021092;28;20060;-71
2023/06/10 10:09:36;;;;;;;3.10;2.30;;;;;;;;;;5017810;28;20041;-71
2023/06/10 10:12:02;;;;;;;2.63;2.42;;;;;;;;;;5018943;28;20049;-71
2023/06/10 10:14:31;;;;;;;3.80;2.30;;;;;;;;;;5017015;28;20045;-71
2023/06/10 10:16:58;;;;;;;3.10;2.33;;;;;;;;;;5018018;28;20151;-71
2023/06/10 10:19:30;;;;;;;3.67;2.53;;;;;;;;;;5028178;28;20049;-72
2023/06/10 10:22:09;;;;;;;3.13;2.65;;;;;;;;;;5018336;28;20132;-71
2023/06/10 10:24:38;;;;;;;3.20;2.60;;;;;;;;;;5015320;28;20049;-71
2023/06/10 10:27:11;;;;;;;2.80;2.53;;;;;;;;;;5016819;28;20056;-71
2023/06/10 10:29:39;;;;;;;4.40;2.53;;;;;;;;;;5017341;28;20050;-72
2023/06/10 10:32:07;;;;;;;3.20;2.30;;;;;;;;;;5017985;28;20052;-72
2023/06/10 10:34:47;;;;;;;2.13;1.92;;;;;;;;;;5018608;28;20138;-72
2023/06/10 10:37:13;;;;;;;2.60;2.40;;;;;;;;;;5017790;28;20056;-73
2023/06/10 10:39:38;;;;;;;3.47;2.10;;;;;;;;;;5018553;28;20061;-72
2023/06/10 10:42:09;;;;;;;2.50;2.30;;;;;;;;;;5020007;28;20132;-73
2023/06/10 10:44:35;;;;;;;2.63;2.42;;;;;;;;;;5019971;28;20398;-72
2023/06/10 10:47:03;;;;;;;2.03;1.90;;;;;;;;;;5016786;28;20049;-73
2023/06/10 10:49:30;;;;;;;2.70;2.50;;;;;;;;;;5018369;28;20041;-72
2023/06/10 10:51:56;;;;;;;4.45;1.95;;;;;;;;;;5019671;28;20065;-72
2023/06/10 10:54:37;;;;;;;2.67;2.25;;;;;;;;;;5020209;28;20056;-72
2023/06/10 10:57:23;;;;;;;3.30;3.00;;;;;;;;;;5016729;28;20037;-73
2023/06/10 10:59:48;;;;;;;3.22;1.88;;;;;;;;;;4990940;28;20422;-72
2023/06/10 11:02:45;;;;;;;2.67;2.47;;;;;;;;;;5018723;28;20064;-73
2023/06/10 11:05:14;;;;;;;2.47;2.28;;;;;;;;;;5019055;28;20064;-72
2023/06/10 11:07:40;;;;;;;2.38;2.17;;;;;;;;;;5017724;28;20041;-71
2023/06/10 11:10:10;;;;;;;2.58;2.38;;;;;;;;;;5018453;28;20049;-72
2023/06/10 11:12:52;;;;;;;2.30;2.20;;;;;;;;;;5017628;28;20038;-72
2023/06/10 11:15:24;;;;;;;;;;;;;;;;;;5018848;28;20845;-72
2023/06/10 11:18:12;;;;;;;2.42;2.22;;;;;;;;;;5017020;28;20902;-72
2023/06/10 11:20:45;;;;;;;4.88;1.92;;;;;;;;;;5015570;28;20061;-72
2023/06/10 11:23:10;;;;;;;3.38;2.13;;;;;;;;;;5002429;28;20045;-72
2023/06/10 11:25:40;;;;;;;2.30;2.20;;;;;;;;;;5034085;28;20049;-72
2023/06/10 11:28:19;;;;;;;5.43;2.20;;;;;;;;;;5017882;28;20058;-71
2023/06/10 11:30:45;;;;;;;6.20;2.08;;;;;;;;;;5017281;28;20053;-72
2023/06/10 11:33:16;;;;;;;2.25;2.05;;;;;;;;;;5016973;28;20053;-73
2023/06/10 11:35:42;;;;;;;1.67;1.55;;;;;;;;;;5019309;28;20045;-74
2023/06/10 11:38:07;;;;;;;2.75;1.77;;;;;;;;;;5017990;28;20049;-73
2023/06/10 11:40:34;;;;;;;1.90;1.80;;;;;;;;;;5017466;28;20095;-72
2023/06/10 11:43:01;;;;;;;3.20;1.80;;;;;;;;;;5018060;28;20053;-71
2023/06/10 11:45:26;;;;;;;2.47;1.75;;;;;;;;;;5019376;28;20104;-71
2023/06/10 11:47:56;;;;;;;1.90;1.80;;;;;;;;;;5018971;28;20042;-71
2023/06/10 11:50:32;;;;;;;1.92;1.83;;;;;;;;;;5022032;28;20392;-71
2023/06/10 11:52:58;;;;;;;2.13;1.90;;;;;;;;;;5021674;28;20533;-71
2023/06/10 11:55:44;;;;;;;2.35;1.90;;;;;;;;;;5021328;28;20085;-71
2023/06/10 11:58:14;;;;;;;1.80;1.70;;;;;;;;;;5020752;28;20060;-71
2023/06/10 12:01:01;;;;;;;3.47;2.03;;;;;;;;;;5021584;28;20347;-71
2023/06/10 12:03:37;;;;;;;4.65;2.50;;;;;;;;;;5019543;28;20057;-72
2023/06/10 12:06:04;;;;;;;4.18;2.72;;;;;;;;;;5012847;28;20060;-72
2023/06/10 12:08:30;;;;;;;3.05;2.75;;;;;;;;;;5019516;28;20118;-71
2023/06/10 12:10:57;;;;;;;3.00;2.60;;;;;;;;;;5019299;28;20080;-73
2023/06/10 12:13:26;;;;;;;2.65;2.45;;;;;;;;;;5017430;28;20049;-72
2023/06/10 12:15:51;;;;;;;3.33;3.08;;;;;;;;;;5020089;28;20091;-72
2023/06/10 12:18:24;;;;;;;3.25;2.80;;;;;;;;;;5019624;28;20064;-72
2023/06/10 12:20:50;;;;;;;5.10;3.30;;;;;;;;;;5021213;28;20788;-72
2023/06/10 12:23:17;;;;;;;3.78;3.30;;;;;;;;;;5023588;28;20057;-72
2023/06/10 12:25:53;;;;;;;4.18;2.97;;;;;;;;;;5020716;28;20107;-72
2023/06/10 12:28:23;;;;;;;3.45;3.15;;;;;;;;;;5015645;28;20119;-71
2023/06/10 12:30:49;;;;;;;4.53;3.47;;;;;;;;;;5019323;28;20095;-73
2023/06/10 12:33:21;;;;;;;3.88;3.33;;;;;;;;;;5018228;28;20054;-72
2023/06/10 12:35:53;;;;;;;5.40;3.08;;;;;;;;;;5019889;28;20049;-71
2023/06/10 12:38:28;;;;;;;3.03;2.80;;;;;;;;;;5020693;28;20576;-71
2023/06/10 12:40:53;;;;;;;2.95;2.65;;;;;;;;;;5020187;28;20045;-72
2023/06/10 12:43:23;;;;;;;3.15;2.85;;;;;;;;;;5018596;28;20053;-71
2023/06/10 12:45:49;;;;;;;2.95;2.75;;;;;;;;;;5017718;28;20045;-72
2023/06/10 12:48:17;;;;;;;3.53;3.03;;;;;;;;;;5018055;28;20041;-72
2023/06/10 12:50:43;;;;;;;3.17;2.88;;;;;;;;;;5018946;28;20049;-73
2023/06/10 12:53:11;;;;;;;5.10;2.80;;;;;;;;;;5017706;28;20972;-74
2023/06/10 12:55:37;;;;;;;3.85;3.05;;;;;;;;;;5020201;28;20061;-74
2023/06/10 12:58:03;;;;;;;4.38;3.25;;;;;;;;;;5020080;28;20046;-74
2023/06/10 13:00:30;;;;;;;9.43;4.30;;;;;;;;;;5020956;28;20239;-74
2023/06/10 13:02:56;;;;;;;4.57;2.67;;;;;;;;;;5019970;28;20080;-75
2023/06/10 13:05:22;;;;;;;4.30;2.80;;;;;;;;;;5021096;28;20057;-75
2023/06/10 13:07:48;;;;;;;3.53;2.70;;;;;;;;;;5019801;28;20056;-75
2023/06/10 13:10:14;;;;;;;3.17;2.88;;;;;;;;;;5019664;28;20041;-75
2023/06/10 13:12:40;;;;;;;3.28;2.60;;;;;;;;;;5019668;28;20045;-75
2023/06/10 13:15:06;;;;;;;4.65;2.80;;;;;;;;;;5019333;28;20060;-73
2023/06/10 13:17:33;;;;;;;12.23;2.63;;;;;;;;;;5020355;28;20103;-74
2023/06/10 13:19:59;;;;;;;4.00;2.60;;;;;;;;;;5018222;28;20065;-74
2023/06/10 13:22:26;;;;;;;4.50;3.22;;;;;;;;;;5002506;28;20037;-75
2023/06/10 13:24:52;;;;;;;3.00;2.63;;;;;;;;;;5020791;28;20046;-74
2023/06/10 13:27:17;;;;;;;3.03;2.60;;;;;;;;;;5020393;28;20100;-74
2023/06/10 13:29:42;;;;;;;3.25;3.00;;;;;;;;;;5020729;28;20060;-74
2023/06/10 13:32:08;;;;;;;6.97;2.78;;;;;;;;;;5019351;28;20043;-74
2023/06/10 13:34:33;;;;;;;5.20;2.70;;;;;;;;;;5019335;28;20049;-75
2023/06/10 13:36:59;;;;;;;3.03;2.78;;;;;;;;;;5020110;28;20045;-76
2023/06/10 13:39:24;;;;;;;2.53;2.33;;;;;;;;;;5010594;28;20124;-74
2023/06/10 13:41:51;;;;;;;2.60;2.35;;;;;;;;;;5028659;28;20053;-74
2023/06/10 13:44:17;;;;;;;2.53;2.33;;;;;;;;;;5019018;28;20490;-74
2023/06/10 13:46:42;;;;;;;5.43;2.58;;;;;;;;;;5033075;28;20049;-73
2023/06/10 13:49:08;;;;;;;2.63;2.42;;;;;;;;;;5015959;28;20049;-74
2023/06/10 13:51:34;;;;;;;2.85;2.38;;;;;;;;;;5033273;28;20053;-74
2023/06/10 13:53:59;;;;;;;2.17;2.08;;;;;;;;;;5017657;28;20057;-73
2023/06/10 13:56:25;;;;;;;2.45;2.25;;;;;;;;;;5018928;28;20118;-74
2023/06/10 13:58:50;;;;;;;5.47;2.50;;;;;;;;;;5018007;28;20056;-73
2023/06/10 14:01:16;;;;;;;2.25;2.05;;;;;;;;;;5018075;28;20099;-75
2023/06/10 14:03:41;;;;;;;2.47;2.28;;;;;;;;;;5016142;28;20060;-74
2023/06/10 14:06:07;;;;;;;2.20;1.90;;;;;;;;;;5018614;28;20045;-74
2023/06/10 14:08:32;;;;;;;2.60;2.40;;;;;;;;;;5017511;28;20103;-73
2023/06/10 14:10:58;;;;;;;4.43;2.70;;;;;;;;;;5017266;28;20037;-74
2023/06/10 14:13:23;;;;;;;3.40;2.25;;;;;;;;;;5017258;28;20721;-74
2023/06/10 14:15:49;;;;;;;5.35;2.83;;;;;;;;;;5016536;28;20045;-74
2023/06/10 14:18:15;;;;;;;2.00;1.83;;;;;;;;;;5017875;28;20065;-75
2023/06/10 14:20:40;;;;;;;2.70;2.50;;;;;;;;;;5015853;28;20095;-75
2023/06/10 14:23:05;;;;;;;2.45;2.25;;;;;;;;;;5017760;28;20076;-74
2023/06/10 14:25:31;;;;;;;2.83;1.90;;;;;;;;;;5018302;28;20065;-74
2023/06/10 14:27:57;;;;;;;2.33;2.13;;;;;;;;;;5018557;28;20537;-74
2023/06/10 14:30:23;;;;;;;2.40;1.98;;;;;;;;;;5016878;28;20057;-74
2023/06/10 14:32:48;;;;;;;1.83;1.73;;;;;;;;;;5019639;28;20045;-74
2023/06/10 14:35:13;;;;;;;2.10;1.85;;;;;;;;;;5018256;28;20060;-75
2023/06/10 14:37:39;;;;;;;2.05;1.90;;;;;;;;;;5033031;28;20057;-74
2023/06/10 14:40:06;;;;;;;2.10;1.88;;;;;;;;;;5018039;28;20128;-75
2023/06/10 14:42:32;;;;;;;2.50;2.00;;;;;;;;;;5017352;28;20060;-74